Time;durP1;ratioP1;P1;durP2;ratioP2;P2;SDS_P1;SDS_P2;PMS_P1;PMS_P2;Temp;Humidity;BMP_temperature;BMP_pressure;BME280_temperature;BME280_humidity;BME280_pressure;Samples;Min_cycle;Max_cycle;Signal;HPM_P1;HPM_P2
2023/03/23 00:02:37;;;;;;;14.38;7.88;;;10.40;99.90;;;;;;5036015;28;20419;-69
2023/03/23 00:05:07;;;;;;;16.20;8.48;;;10.30;99.90;;;;;;5041630;28;20048;-68
2023/03/23 00:07:34;;;;;;;19.02;7.85;;;10.40;99.90;;;;;;5044757;28;20041;-70
2023/03/23 00:10:02;;;;;;;12.00;7.15;;;10.40;99.90;;;;;;5047036;28;20362;-69
2023/03/23 00:12:32;;;;;;;18.65;8.48;;;10.30;99.90;;;;;;5037623;28;20539;-69
2023/03/23 00:15:03;;;;;;;13.65;7.13;;;10.50;99.90;;;;;;5040524;28;20033;-71
2023/03/23 00:17:29;;;;;;;;;;;10.40;99.90;;;;;;5040851;28;20099;-68
2023/03/23 00:19:55;;;;;;;15.75;7.55;;;10.40;99.90;;;;;;5040385;28;19916;-69
2023/03/23 00:22:21;;;;;;;13.90;6.82;;;10.40;99.90;;;;;;5039954;28;20047;-69
2023/03/23 00:24:50;;;;;;;16.40;7.70;;;10.30;99.90;;;;;;5040107;28;20053;-70
2023/03/23 00:27:16;;;;;;;15.02;8.15;;;10.20;99.90;;;;;;5030329;28;20083;-69
2023/03/23 00:29:42;;;;;;;11.10;6.68;;;10.30;99.90;;;;;;5013295;28;20043;-68
2023/03/23 00:32:12;;;;;;;13.75;7.68;;;10.30;99.90;;;;;;5034181;28;20588;-68
2023/03/23 00:34:40;;;;;;;12.23;7.10;;;10.20;99.90;;;;;;5038643;28;20045;-68
2023/03/23 00:37:07;;;;;;;11.27;7.38;;;10.20;99.90;;;;;;5035459;28;20053;-67
2023/03/23 00:39:33;;;;;;;14.45;7.90;;;10.30;99.90;;;;;;5038836;28;20080;-68
2023/03/23 00:42:02;;;;;;;13.13;7.18;;;10.30;99.90;;;;;;5053850;28;20036;-68
2023/03/23 00:44:30;;;;;;;12.77;6.78;;;10.40;99.90;;;;;;5049867;28;20071;-69
2023/03/23 00:46:56;;;;;;;15.38;7.13;;;10.30;99.90;;;;;;5045279;28;20099;-68
2023/03/23 00:49:24;;;;;;;12.13;7.50;;;10.30;99.90;;;;;;5045813;28;20037;-68
2023/03/23 00:51:51;;;;;;;13.50;6.85;;;10.20;99.90;;;;;;5034906;28;20396;-67
2023/03/23 00:54:16;;;;;;;12.63;6.45;;;10.30;99.90;;;;;;5041144;28;20098;-69
2023/03/23 00:56:42;;;;;;;13.13;6.30;;;10.20;99.90;;;;;;5034754;28;20464;-66
2023/03/23 00:59:08;;;;;;;15.73;7.75;;;10.30;99.90;;;;;;5050964;28;20075;-69
2023/03/23 01:01:35;;;;;;;11.32;6.85;;;10.30;99.90;;;;;;5048726;28;20099;-67
2023/03/23 01:04:03;;;;;;;11.95;6.90;;;10.30;99.90;;;;;;5044825;28;20404;-67
2023/03/23 01:06:31;;;;;;;8.75;6.05;;;10.30;99.90;;;;;;5042281;28;20043;-66
2023/03/23 01:08:57;;;;;;;10.20;6.18;;;10.30;99.90;;;;;;5038354;28;20045;-69
2023/03/23 01:11:24;;;;;;;10.70;6.38;;;10.20;99.90;;;;;;5038718;28;20087;-66
2023/03/23 01:13:50;;;;;;;11.02;5.13;;;10.20;99.90;;;;;;5047206;28;20087;-68
2023/03/23 01:16:15;;;;;;;11.45;5.70;;;10.30;99.90;;;;;;5040390;28;20127;-68
2023/03/23 01:18:41;;;;;;;8.63;5.07;;;10.20;99.90;;;;;;5041171;28;20060;-69
2023/03/23 01:21:11;;;;;;;7.45;4.63;;;10.20;99.90;;;;;;5043404;28;20044;-68
2023/03/23 01:23:37;;;;;;;9.60;5.47;;;10.10;99.90;;;;;;5041709;28;20036;-68
2023/03/23 01:26:08;;;;;;;7.57;4.78;;;10.10;99.90;;;;;;5042089;28;20073;-67
2023/03/23 01:28:35;;;;;;;7.00;3.80;;;10.00;99.90;;;;;;5038583;28;20603;-70
2023/03/23 01:31:22;;;;;;;7.05;4.50;;;10.10;99.90;;;;;;5040758;28;20116;-68
2023/03/23 01:33:50;;;;;;;13.88;4.82;;;10.00;99.90;;;;;;5042497;28;20049;-69
2023/03/23 01:36:20;;;;;;;7.80;4.00;;;10.00;99.90;;;;;;5040528;28;20584;-68
2023/03/23 01:38:47;;;;;;;9.75;4.90;;;10.00;99.90;;;;;;5048130;28;20049;-70
2023/03/23 01:41:14;;;;;;;6.53;4.28;;;10.00;99.90;;;;;;5039774;28;20055;-69
2023/03/23 01:44:04;;;;;;;9.30;4.22;;;10.00;99.90;;;;;;5043681;28;20178;-68
2023/03/23 01:46:32;;;;;;;10.02;3.67;;;10.10;99.90;;;;;;5040892;28;20091;-67
2023/03/23 01:49:06;;;;;;;8.95;4.18;;;10.00;99.90;;;;;;5049282;28;20045;-67
2023/03/23 01:51:35;;;;;;;10.00;3.60;;;10.00;99.90;;;;;;5037389;28;20071;-68
2023/03/23 01:54:04;;;;;;;4.60;3.20;;;10.00;99.90;;;;;;5042323;28;20048;-67
2023/03/23 01:56:40;;;;;;;7.68;3.55;;;10.00;99.90;;;;;;5033547;28;20059;-67
2023/03/23 01:59:07;;;;;;;5.88;2.67;;;10.00;99.90;;;;;;5045277;28;20041;-67
2023/03/23 02:01:36;;;;;;;6.57;2.80;;;9.90;99.90;;;;;;5010091;28;20143;-69
2023/03/23 02:04:03;;;;;;;4.20;2.78;;;9.90;99.90;;;;;;5032615;28;20943;-72
2023/03/23 02:06:28;;;;;;;5.32;2.40;;;10.00;99.90;;;;;;5034755;28;20127;-69
2023/03/23 02:08:55;;;;;;;5.10;2.55;;;9.90;99.90;;;;;;5038120;28;20548;-65
2023/03/23 02:11:22;;;;;;;8.10;3.10;;;9.90;99.90;;;;;;5036554;28;20172;-70
2023/03/23 02:13:49;;;;;;;7.68;2.75;;;10.00;99.90;;;;;;5036890;28;20564;-69
2023/03/23 02:16:24;;;;;;;7.20;3.20;;;10.00;99.90;;;;;;5041933;28;20040;-67
2023/03/23 02:19:08;;;;;;;4.97;2.95;;;9.90;99.90;;;;;;5037002;28;20048;-68
2023/03/23 02:22:06;;;;;;;7.60;3.15;;;10.00;99.90;;;;;;5035017;28;20048;-67
2023/03/23 02:25:10;;;;;;;7.28;2.92;;;10.00;99.90;;;;;;5036064;28;20111;-66
2023/03/23 02:27:57;;;;;;;7.35;2.80;;;10.00;99.90;;;;;;5038452;28;20175;-68
2023/03/23 02:30:35;;;;;;;7.00;3.55;;;10.00;99.90;;;;;;5037221;28;20132;-68
2023/03/23 02:33:28;;;;;;;4.95;2.90;;;10.00;99.90;;;;;;5043169;28;20041;-67
2023/03/23 02:36:04;;;;;;;6.78;2.65;;;10.10;99.90;;;;;;5046256;28;20048;-68
2023/03/23 02:38:36;;;;;;;7.00;3.00;;;10.00;99.90;;;;;;5036657;28;20045;-68
2023/03/23 02:41:03;;;;;;;7.30;3.10;;;10.00;99.90;;;;;;5050949;28;20145;-68
2023/03/23 02:43:36;;;;;;;5.18;2.53;;;10.10;99.90;;;;;;5045085;28;20045;-69
2023/03/23 02:46:06;;;;;;;6.60;2.58;;;10.00;99.90;;;;;;5031258;28;20193;-68
2023/03/23 02:48:33;;;;;;;4.57;2.38;;;10.10;99.90;;;;;;5043634;28;20103;-68
2023/03/23 02:51:01;;;;;;;4.97;2.67;;;10.20;99.90;;;;;;5031683;28;20040;-67
2023/03/23 02:53:30;;;;;;;6.00;2.67;;;10.00;99.90;;;;;;5042438;28;20052;-67
2023/03/23 02:55:57;;;;;;;4.20;2.13;;;10.00;99.90;;;;;;5043507;28;20052;-68
2023/03/23 02:58:23;;;;;;;8.20;3.15;;;10.00;99.90;;;;;;5032062;28;20082;-69
2023/03/23 03:00:51;;;;;;;4.65;2.50;;;10.00;99.90;;;;;;5047259;28;20584;-68
2023/03/23 03:03:20;;;;;;;4.72;2.55;;;10.00;99.90;;;;;;5024906;28;20041;-67
2023/03/23 03:05:49;;;;;;;5.82;2.03;;;10.00;99.90;;;;;;5013798;28;20049;-67
2023/03/23 03:08:49;;;;;;;5.53;2.22;;;10.10;99.90;;;;;;5039803;28;20424;-68
2023/03/23 03:11:18;;;;;;;5.30;2.58;;;10.10;99.90;;;;;;5031935;28;20040;-68
2023/03/23 03:14:02;;;;;;;4.40;2.03;;;10.00;99.90;;;;;;5034653;28;20033;-67
2023/03/23 03:16:44;;;;;;;5.68;2.10;;;10.00;99.90;;;;;;5035417;28;20045;-69
2023/03/23 03:19:18;;;;;;;3.38;1.77;;;10.10;99.90;;;;;;5033975;28;20087;-68
2023/03/23 03:21:48;;;;;;;4.38;1.98;;;10.00;99.90;;;;;;5043131;28;20033;-66
2023/03/23 03:24:17;;;;;;;4.07;2.92;;;10.00;99.90;;;;;;5045050;28;21141;-69
2023/03/23 03:26:47;;;;;;;6.15;2.58;;;10.00;99.90;;;;;;5037326;28;20053;-68
2023/03/23 03:29:18;;;;;;;4.22;2.53;;;10.00;99.90;;;;;;5032247;28;20701;-68
2023/03/23 03:31:45;;;;;;;4.07;2.45;;;10.10;99.90;;;;;;5039907;28;20124;-68
2023/03/23 03:34:17;;;;;;;5.80;2.65;;;10.10;99.90;;;;;;5038660;28;20035;-67
2023/03/23 03:36:45;;;;;;;5.22;3.03;;;10.10;99.90;;;;;;5038153;28;20553;-67
2023/03/23 03:39:14;;;;;;;5.18;2.70;;;10.20;99.90;;;;;;5039827;28;20048;-67
2023/03/23 03:41:40;;;;;;;4.18;2.90;;;10.20;99.90;;;;;;5039003;28;20128;-67
2023/03/23 03:44:06;;;;;;;5.07;2.50;;;10.20;99.90;;;;;;5042513;28;20508;-67
2023/03/23 03:46:36;;;;;;;6.13;3.00;;;10.20;99.90;;;;;;5036062;28;20093;-67
2023/03/23 03:49:05;;;;;;;5.32;3.13;;;10.20;99.90;;;;;;5012220;28;20040;-67
2023/03/23 03:51:31;;;;;;;6.82;2.35;;;10.20;99.90;;;;;;5036634;28;20079;-67
2023/03/23 03:53:57;;;;;;;8.10;2.85;;;10.20;99.90;;;;;;5039689;28;20120;-67
2023/03/23 03:56:23;;;;;;;7.07;2.90;;;10.30;99.90;;;;;;5034665;28;21095;-68
2023/03/23 03:58:50;;;;;;;3.90;2.67;;;10.20;99.90;;;;;;5033392;28;20041;-69
2023/03/23 04:01:17;;;;;;;5.10;2.90;;;10.20;99.90;;;;;;5036295;28;20088;-66
2023/03/23 04:03:44;;;;;;;6.18;3.45;;;10.20;99.90;;;;;;5046625;28;20131;-66
2023/03/23 04:06:12;;;;;;;5.70;3.00;;;10.10;99.90;;;;;;5037548;28;20033;-69
2023/03/23 04:08:38;;;;;;;4.93;2.75;;;10.20;99.90;;;;;;5042977;28;20068;-67
2023/03/23 04:11:04;;;;;;;4.72;2.88;;;10.30;99.90;;;;;;5035674;28;20045;-66
2023/03/23 04:13:31;;;;;;;4.93;2.83;;;10.30;99.90;;;;;;5031116;28;20041;-69
2023/03/23 04:15:56;;;;;;;8.15;2.83;;;10.30;99.90;;;;;;5037038;28;20073;-68
2023/03/23 04:18:23;;;;;;;7.22;3.40;;;10.30;99.90;;;;;;5042383;28;20070;-68
2023/03/23 04:20:50;;;;;;;5.10;2.70;;;10.40;99.90;;;;;;5036782;28;20037;-67
2023/03/23 04:23:21;;;;;;;5.15;2.83;;;10.30;99.90;;;;;;5038112;28;20043;-68
2023/03/23 04:25:48;;;;;;;7.00;2.88;;;10.30;99.90;;;;;;5036210;28;20045;-67
2023/03/23 04:28:16;;;;;;;4.03;3.03;;;10.40;99.90;;;;;;5047162;28;20076;-67
2023/03/23 04:30:42;;;;;;;4.32;2.67;;;10.40;99.90;;;;;;5030074;28;20048;-69
2023/03/23 04:33:14;;;;;;;5.32;3.10;;;10.40;99.90;;;;;;5024307;28;20041;-67
2023/03/23 04:35:41;;;;;;;5.30;3.55;;;10.50;99.90;;;;;;5039589;28;20400;-67
2023/03/23 04:38:08;;;;;;;5.18;3.20;;;10.60;99.90;;;;;;5048834;28;20049;-68
2023/03/23 04:40:38;;;;;;;5.07;3.45;;;10.50;99.90;;;;;;5045777;28;20378;-67
2023/03/23 04:43:05;;;;;;;6.10;3.40;;;10.60;99.90;;;;;;5042485;28;20610;-65
2023/03/23 04:45:33;;;;;;;6.00;3.28;;;10.50;99.90;;;;;;5041500;28;20038;-67
2023/03/23 04:47:58;;;;;;;5.82;3.10;;;10.40;99.90;;;;;;5031538;28;20042;-68
2023/03/23 04:50:30;;;;;;;4.80;3.45;;;10.50;99.90;;;;;;5036922;28;20033;-66
2023/03/23 04:52:58;;;;;;;5.90;3.58;;;10.60;99.90;;;;;;5040994;28;20078;-68
2023/03/23 04:55:25;;;;;;;6.15;3.47;;;10.60;99.90;;;;;;5047647;28;20500;-72
2023/03/23 04:57:51;;;;;;;7.30;3.55;;;10.40;99.90;;;;;;5050642;28;20049;-69
2023/03/23 05:00:17;;;;;;;8.10;3.60;;;10.30;99.90;;;;;;5047220;28;20052;-67
2023/03/23 05:02:46;;;;;;;7.63;3.13;;;10.20;99.90;;;;;;5039022;28;20851;-68
2023/03/23 05:05:13;;;;;;;7.63;3.35;;;10.20;99.90;;;;;;5045595;28;20245;-70
2023/03/23 05:07:39;;;;;;;4.30;3.20;;;10.20;99.90;;;;;;5045546;28;20037;-68
2023/03/23 05:10:07;;;;;;;6.20;3.15;;;10.10;99.90;;;;;;5045781;28;20098;-71
2023/03/23 05:12:33;;;;;;;4.78;2.58;;;10.10;99.90;;;;;;5041316;28;20573;-68
2023/03/23 05:14:59;;;;;;;5.03;2.60;;;10.00;99.90;;;;;;5041987;28;20124;-69
2023/03/23 05:17:25;;;;;;;6.45;2.67;;;9.90;99.90;;;;;;5030268;28;20040;-69
2023/03/23 05:19:51;;;;;;;3.97;1.90;;;9.80;99.90;;;;;;5047095;28;20534;-67
2023/03/23 05:22:17;;;;;;;3.28;1.80;;;9.60;99.90;;;;;;5053074;28;20040;-67
2023/03/23 05:24:43;;;;;;;4.10;1.80;;;9.60;99.90;;;;;;5048486;28;20109;-69
2023/03/23 05:27:10;;;;;;;2.42;1.23;;;9.50;99.90;;;;;;5039820;28;20933;-68
2023/03/23 05:29:36;;;;;;;1.58;1.13;;;9.40;99.90;;;;;;5041042;28;20109;-66
2023/03/23 05:32:03;;;;;;;2.00;1.27;;;9.40;99.90;;;;;;5043706;28;20542;-69
2023/03/23 05:34:32;;;;;;;7.53;1.80;;;9.30;99.90;;;;;;5041532;28;20080;-69
2023/03/23 05:36:58;;;;;;;2.53;1.70;;;9.30;99.90;;;;;;5016276;28;20051;-68
2023/03/23 05:39:26;;;;;;;4.10;1.60;;;9.30;99.90;;;;;;5022066;28;20072;-67
2023/03/23 05:41:52;;;;;;;3.45;1.48;;;9.20;99.90;;;;;;5040790;28;20040;-67
2023/03/23 05:44:18;;;;;;;6.35;1.30;;;9.20;99.90;;;;;;5043654;28;20045;-69
2023/03/23 05:46:43;;;;;;;2.28;1.38;;;9.20;99.90;;;;;;5039033;28;20037;-68
2023/03/23 05:49:09;;;;;;;9.13;1.42;;;9.30;99.90;;;;;;5013019;28;20063;-69
2023/03/23 05:51:35;;;;;;;4.00;1.30;;;9.20;99.90;;;;;;5035873;28;20037;-68
2023/03/23 05:54:01;;;;;;;5.03;2.00;;;9.30;99.90;;;;;;5040613;28;20033;-67
2023/03/23 05:56:27;;;;;;;5.47;1.70;;;9.30;99.90;;;;;;5034144;28;20037;-68
2023/03/23 05:58:54;;;;;;;6.43;1.85;;;9.40;99.90;;;;;;5035372;28;20786;-68
2023/03/23 06:01:20;;;;;;;10.73;1.90;;;9.40;99.90;;;;;;5036323;28;20045;-69
2023/03/23 06:03:46;;;;;;;4.05;1.60;;;9.40;99.90;;;;;;5036550;28;20470;-68
2023/03/23 06:06:12;;;;;;;4.07;1.33;;;9.40;99.90;;;;;;5040313;28;20033;-67
2023/03/23 06:08:38;;;;;;;7.10;1.58;;;9.40;99.90;;;;;;5037812;28;20049;-69
2023/03/23 06:11:04;;;;;;;5.28;1.48;;;9.40;99.90;;;;;;5038816;28;20366;-68
2023/03/23 06:13:30;;;;;;;5.10;1.73;;;9.50;99.90;;;;;;5039328;28;20052;-69
2023/03/23 06:15:57;;;;;;;3.67;1.42;;;9.40;99.90;;;;;;5040744;28;20524;-68
2023/03/23 06:18:23;;;;;;;7.63;1.33;;;9.40;99.90;;;;;;5037989;28;20041;-68
2023/03/23 06:20:49;;;;;;;5.95;1.20;;;9.40;99.90;;;;;;5046759;28;20041;-67
2023/03/23 06:23:15;;;;;;;3.72;1.33;;;9.40;99.90;;;;;;5036738;28;20424;-67
2023/03/23 06:25:40;;;;;;;6.40;1.30;;;9.40;99.90;;;;;;5041155;28;20400;-67
2023/03/23 06:28:06;;;;;;;4.75;1.40;;;9.30;99.90;;;;;;5038169;28;20041;-69
2023/03/23 06:30:31;;;;;;;9.80;1.63;;;9.30;99.90;;;;;;5028138;28;20046;-66
2023/03/23 06:32:57;;;;;;;4.53;1.17;;;9.40;99.90;;;;;;5047574;28;20037;-67
2023/03/23 06:35:23;;;;;;;3.22;1.40;;;9.40;99.90;;;;;;5036152;28;20128;-67
2023/03/23 06:37:49;;;;;;;3.63;1.13;;;9.40;99.90;;;;;;5047928;28;20508;-67
2023/03/23 06:40:14;;;;;;;5.72;1.35;;;9.40;99.90;;;;;;5047965;28;20056;-66
2023/03/23 06:42:40;;;;;;;4.85;1.35;;;9.40;99.90;;;;;;5035665;28;20041;-68
2023/03/23 06:45:07;;;;;;;4.68;1.40;;;9.40;99.90;;;;;;5031411;28;20046;-68
2023/03/23 06:47:33;;;;;;;6.32;1.67;;;9.50;99.90;;;;;;5036355;28;20426;-68
2023/03/23 06:49:59;;;;;;;3.80;1.15;;;9.40;99.90;;;;;;5031458;28;20040;-68
2023/03/23 06:52:25;;;;;;;5.07;1.23;;;9.50;99.90;;;;;;5039273;28;20112;-68
2023/03/23 06:54:52;;;;;;;6.15;1.30;;;9.50;99.90;;;;;;5027365;28;20108;-68
2023/03/23 06:57:18;;;;;;;7.43;1.52;;;9.60;99.90;;;;;;5043345;28;20068;-68
2023/03/23 06:59:44;;;;;;;8.43;1.83;;;9.60;99.90;;;;;;5038918;28;20114;-67
2023/03/23 07:02:11;;;;;;;4.80;1.85;;;9.70;99.90;;;;;;5032030;28;20481;-67
2023/03/23 07:04:38;;;;;;;6.55;1.60;;;9.70;99.90;;;;;;5031073;28;20132;-67
2023/03/23 07:07:04;;;;;;;13.88;2.00;;;9.80;99.90;;;;;;5039521;28;20029;-66
2023/03/23 07:09:30;;;;;;;13.48;1.88;;;9.80;99.90;;;;;;5036078;28;20045;-69
2023/03/23 07:11:56;;;;;;;4.82;1.83;;;9.90;99.90;;;;;;5040929;28;20033;-69
2023/03/23 07:14:22;;;;;;;9.50;2.17;;;9.90;99.90;;;;;;5040458;28;20099;-68
2023/03/23 07:16:48;;;;;;;11.48;2.10;;;10.00;99.90;;;;;;5015713;28;20044;-68
2023/03/23 07:19:13;;;;;;;9.43;1.60;;;10.00;99.90;;;;;;5037791;28;20056;-68
2023/03/23 07:21:39;;;;;;;7.82;1.80;;;10.10;99.90;;;;;;5043536;28;20040;-70
2023/03/23 07:24:05;;;;;;;5.40;2.30;;;10.10;99.90;;;;;;5036212;28;20584;-70
2023/03/23 07:26:31;;;;;;;9.93;1.65;;;10.10;99.90;;;;;;5037878;28;20049;-67
2023/03/23 07:28:57;;;;;;;14.82;2.40;;;10.20;99.90;;;;;;5038403;28;20052;-69
2023/03/23 07:31:22;;;;;;;11.05;1.50;;;10.10;99.90;;;;;;5046712;28;20080;-67
2023/03/23 07:33:48;;;;;;;8.50;1.30;;;10.20;99.90;;;;;;5047708;28;20479;-69
2023/03/23 07:36:13;;;;;;;11.52;1.90;;;10.20;99.90;;;;;;5043596;28;20045;-69
2023/03/23 07:38:39;;;;;;;5.95;1.67;;;10.20;99.90;;;;;;5035620;28;20052;-67
2023/03/23 07:41:06;;;;;;;5.72;1.50;;;10.30;99.90;;;;;;5039585;28;20081;-68
2023/03/23 07:43:31;;;;;;;7.35;1.50;;;10.50;99.90;;;;;;5022210;28;20037;-68
2023/03/23 07:45:57;;;;;;;6.35;1.73;;;10.60;99.90;;;;;;5029362;28;20052;-69
2023/03/23 07:48:23;;;;;;;9.90;1.60;;;10.70;99.90;;;;;;5030882;28;20056;-71
2023/03/23 07:50:48;;;;;;;8.55;1.70;;;10.90;99.90;;;;;;5033272;28;20083;-70
2023/03/23 07:53:14;;;;;;;8.40;1.80;;;11.10;99.90;;;;;;5036348;28;20048;-71
2023/03/23 07:55:40;;;;;;;9.00;1.52;;;11.10;99.90;;;;;;5028160;28;20048;-70
2023/03/23 07:58:06;;;;;;;4.47;1.55;;;11.00;99.90;;;;;;5032066;28;20397;-69
2023/03/23 08:00:32;;;;;;;6.85;1.92;;;10.90;99.90;;;;;;5003061;28;20057;-69
2023/03/23 08:02:58;;;;;;;15.02;2.35;;;10.90;99.90;;;;;;5033856;28;20064;-69
2023/03/23 08:05:26;;;;;;;8.95;1.88;;;10.90;99.90;;;;;;5032156;28;20080;-68
2023/03/23 08:07:54;;;;;;;8.88;1.60;;;11.00;99.90;;;;;;5038167;28;20560;-70
2023/03/23 08:10:21;;;;;;;11.60;1.95;;;11.10;99.90;;;;;;5049352;28;20037;-74
2023/03/23 08:12:54;;;;;;;7.80;1.50;;;11.10;99.90;;;;;;5019177;28;20041;-68
2023/03/23 08:15:21;;;;;;;9.00;1.88;;;11.00;99.90;;;;;;5012926;28;20069;-69
2023/03/23 08:17:47;;;;;;;8.85;2.33;;;11.00;99.90;;;;;;5038357;28;20171;-68
2023/03/23 08:20:14;;;;;;;8.82;2.45;;;11.00;99.90;;;;;;5028331;28;20045;-70
2023/03/23 08:22:42;;;;;;;18.35;2.25;;;11.00;99.90;;;;;;5040816;28;20563;-70
2023/03/23 08:25:10;;;;;;;8.13;2.40;;;11.00;99.90;;;;;;5044956;28;20454;-70
2023/03/23 08:27:36;;;;;;;9.65;2.13;;;11.00;99.90;;;;;;5052288;28;20040;-68
2023/03/23 08:30:06;;;;;;;10.90;1.67;;;11.00;99.90;;;;;;5042620;28;20064;-69
2023/03/23 08:32:32;;;;;;;5.22;1.38;;;11.10;99.90;;;;;;5032145;28;20042;-70
2023/03/23 08:34:58;;;;;;;7.45;1.70;;;11.10;99.90;;;;;;5037161;28;20041;-70
2023/03/23 08:37:23;;;;;;;7.75;2.00;;;11.10;99.90;;;;;;5035065;28;20092;-69
2023/03/23 08:39:53;;;;;;;10.60;1.75;;;11.20;99.90;;;;;;5047871;28;20048;-69
2023/03/23 08:42:19;;;;;;;10.98;1.52;;;11.20;99.90;;;;;;5033140;28;20537;-69
2023/03/23 08:44:44;;;;;;;12.15;1.92;;;11.20;99.90;;;;;;5031123;28;20178;-70
2023/03/23 08:47:10;;;;;;;10.05;2.30;;;11.20;99.90;;;;;;5038684;28;20037;-72
2023/03/23 08:49:36;;;;;;;6.40;2.05;;;11.30;99.90;;;;;;5048756;28;20040;-70
2023/03/23 08:52:02;;;;;;;11.02;2.92;;;11.20;99.90;;;;;;5034358;28;20063;-69
2023/03/23 08:54:30;;;;;;;9.73;2.25;;;11.10;99.90;;;;;;5045207;28;20048;-71
2023/03/23 08:56:58;;;;;;;15.63;2.67;;;11.20;99.90;;;;;;5041563;28;20052;-69
2023/03/23 08:59:25;;;;;;;14.38;2.40;;;11.60;99.90;;;;;;5031341;28;20056;-69
2023/03/23 09:01:50;;;;;;;13.10;2.00;;;11.70;99.90;;;;;;5036366;28;20067;-69
2023/03/23 09:04:16;;;;;;;10.18;1.88;;;11.80;99.90;;;;;;5043685;28;20397;-72
2023/03/23 09:06:42;;;;;;;12.88;2.05;;;12.20;99.90;;;;;;5042620;28;20450;-70
2023/03/23 09:09:08;;;;;;;11.23;2.25;;;12.40;99.90;;;;;;5032423;28;20056;-70
2023/03/23 09:11:35;;;;;;;10.38;2.20;;;12.30;99.90;;;;;;5034914;28;20040;-71
2023/03/23 09:14:05;;;;;;;16.42;2.38;;;12.20;99.90;;;;;;5035396;28;20608;-69
2023/03/23 09:16:32;;;;;;;10.80;1.80;;;11.90;99.90;;;;;;5038431;28;20045;-70
2023/03/23 09:18:58;;;;;;;10.15;1.70;;;11.80;99.90;;;;;;5044562;28;20036;-71
2023/03/23 09:21:25;;;;;;;11.88;2.28;;;11.70;99.90;;;;;;5049282;28;20528;-71
2023/03/23 09:23:51;;;;;;;10.02;1.92;;;11.80;99.90;;;;;;5040325;28;20072;-71
2023/03/23 09:26:17;;;;;;;11.80;2.47;;;11.80;99.90;;;;;;5032106;28;20045;-68
2023/03/23 09:28:44;;;;;;;6.13;1.80;;;11.80;99.90;;;;;;5033834;28;20044;-71
2023/03/23 09:31:10;;;;;;;11.05;2.55;;;11.70;99.90;;;;;;5036461;28;20474;-70
2023/03/23 09:33:36;;;;;;;9.30;2.00;;;11.60;99.90;;;;;;5040200;28;20102;-70
2023/03/23 09:36:04;;;;;;;5.78;2.08;;;11.40;99.90;;;;;;5046600;28;20614;-70
2023/03/23 09:38:33;;;;;;;5.75;1.75;;;11.30;99.90;;;;;;5042593;28;20053;-71
2023/03/23 09:41:26;;;;;;;13.02;2.40;;;11.20;99.90;;;;;;5038616;28;20501;-70
2023/03/23 09:44:10;;;;;;;10.48;2.35;;;11.20;99.90;;;;;;5030417;28;20485;-71
2023/03/23 09:46:45;;;;;;;8.18;1.63;;;11.20;99.90;;;;;;5031819;28;20037;-70
2023/03/23 09:49:16;;;;;;;6.78;1.80;;;11.30;99.90;;;;;;5025248;28;20087;-68
2023/03/23 09:51:55;;;;;;;9.85;1.77;;;11.20;99.90;;;;;;5049549;22;20819;-68
2023/03/23 09:54:28;;;;;;;14.13;1.95;;;11.20;99.90;;;;;;5022808;28;20080;-70
2023/03/23 09:56:55;;;;;;;4.85;1.48;;;11.30;99.90;;;;;;5033720;28;20467;-70
2023/03/23 09:59:42;;;;;;;10.07;2.08;;;11.40;99.90;;;;;;5022324;28;20048;-68
2023/03/23 10:02:14;;;;;;;11.93;2.33;;;11.60;99.90;;;;;;5032057;28;20132;-71
2023/03/23 10:04:52;;;;;;;12.73;1.90;;;11.90;99.90;;;;;;5029435;28;20498;-71
2023/03/23 10:07:26;;;;;;;7.05;1.75;;;12.20;99.90;;;;;;5016992;28;20037;-74
2023/03/23 10:09:57;;;;;;;6.72;1.88;;;12.60;99.90;;;;;;5028896;28;20442;-70
2023/03/23 10:13:04;;;;;;;7.00;1.30;;;12.60;99.90;;;;;;5035454;28;20048;-72
2023/03/23 10:15:34;;;;;;;12.30;2.03;;;12.60;99.90;;;;;;4951267;28;20053;-76
2023/03/23 10:18:19;;;;;;;12.23;1.80;;;12.50;99.90;;;;;;5021967;28;20052;-70
2023/03/23 10:20:58;;;;;;;11.20;2.03;;;12.20;99.90;;;;;;5031430;28;20062;-72
2023/03/23 10:23:58;;;;;;;12.15;1.50;;;12.30;99.90;;;;;;5033674;28;20123;-71
2023/03/23 10:26:27;;;;;;;5.00;1.77;;;12.20;99.90;;;;;;5010407;28;20629;-70
2023/03/23 10:29:10;;;;;;;8.02;1.58;;;12.20;99.90;;;;;;5026803;28;20041;-71
2023/03/23 10:31:48;;;;;;;11.40;1.52;;;12.40;99.90;;;;;;5034422;28;20074;-69
2023/03/23 10:34:23;;;;;;;9.07;2.13;;;12.60;99.90;;;;;;5032162;28;20037;-70
2023/03/23 10:37:26;;;;;;;13.05;1.88;;;12.70;99.90;;;;;;5015089;28;20040;-71
2023/03/23 10:39:58;;;;;;;5.50;1.50;;;12.90;99.90;;;;;;5016490;28;20041;-71
2023/03/23 10:42:26;;;;;;;8.30;1.58;;;13.20;99.90;;;;;;5015435;28;20033;-72
2023/03/23 10:44:52;;;;;;;7.40;1.65;;;13.60;99.90;;;;;;5015023;28;20083;-72
2023/03/23 10:47:18;;;;;;;6.95;1.40;;;13.60;99.90;;;;;;5030315;28;20409;-71
2023/03/23 10:49:49;;;;;;;11.43;2.20;;;13.70;99.90;;;;;;5031751;28;20080;-70
2023/03/23 10:52:25;;;;;;;9.52;1.70;;;13.90;99.90;;;;;;5043260;28;20120;-68
2023/03/23 10:55:02;;;;;;;9.52;1.85;;;14.00;99.90;;;;;;5012892;28;20053;-70
2023/03/23 10:57:29;;;;;;;7.05;1.83;;;13.80;99.90;;;;;;5033293;28;20495;-68
2023/03/23 11:00:01;;;;;;;6.57;1.80;;;13.90;98.00;;;;;;5014386;28;20119;-70
2023/03/23 11:02:28;;;;;;;3.47;1.20;;;14.10;99.90;;;;;;5018109;28;20049;-70
2023/03/23 11:05:04;;;;;;;6.03;1.73;;;14.10;99.90;;;;;;5026822;28;20444;-71
2023/03/23 11:07:34;;;;;;;8.02;1.70;;;14.10;99.90;;;;;;5033746;28;20040;-69
2023/03/23 11:10:24;;;;;;;5.68;1.70;;;14.00;99.90;;;;;;5015545;28;20064;-70
2023/03/23 11:12:52;;;;;;;7.82;2.38;;;13.90;97.60;;;;;;5023779;28;20041;-73
2023/03/23 11:15:25;;;;;;;6.10;2.20;;;13.90;99.90;;;;;;5020382;28;20144;-69
2023/03/23 11:18:07;;;;;;;4.63;1.27;;;14.00;99.90;;;;;;5018482;28;20041;-68
2023/03/23 11:20:41;;;;;;;7.85;1.25;;;14.20;99.90;;;;;;5019811;28;20056;-69
2023/03/23 11:23:24;;;;;;;3.92;1.30;;;14.40;98.90;;;;;;5028176;28;20048;-67
2023/03/23 11:25:55;;;;;;;3.83;1.20;;;14.50;99.80;;;;;;5030343;28;20029;-68
2023/03/23 11:28:21;;;;;;;6.90;1.30;;;14.70;99.90;;;;;;5024473;28;20041;-69
2023/03/23 11:30:47;;;;;;;4.60;1.13;;;14.90;99.90;;;;;;5032447;28;20052;-67
2023/03/23 11:33:15;;;;;;;5.15;1.58;;;15.00;96.90;;;;;;5031117;28;20044;-69
2023/03/23 11:35:45;;;;;;;8.13;1.65;;;15.20;99.90;;;;;;5033864;28;20049;-73
2023/03/23 11:38:18;;;;;;;2.67;0.88;;;15.30;96.50;;;;;;5032074;28;20387;-67
2023/03/23 11:40:50;;;;;;;6.18;1.27;;;15.30;91.20;;;;;;5032258;28;20036;-68
2023/03/23 11:43:24;;;;;;;3.25;0.85;;;15.20;81.60;;;;;;5019072;28;20159;-69
2023/03/23 11:46:22;;;;;;;7.28;1.27;;;15.30;92.90;;;;;;5012350;28;20126;-67
2023/03/23 11:48:59;;;;;;;6.30;1.23;;;15.30;79.60;;;;;;5029735;28;20508;-68
2023/03/23 11:51:31;;;;;;;3.28;1.13;;;15.20;90.80;;;;;;5016965;28;20507;-68
2023/03/23 11:54:20;;;;;;;7.68;1.20;;;15.40;88.70;;;;;;5020703;28;20459;-69
2023/03/23 11:56:47;;;;;;;4.20;1.55;;;15.70;88.70;;;;;;5029904;28;20116;-68
2023/03/23 11:59:30;;;;;;;2.03;0.88;;;15.60;93.20;;;;;;5026219;28;20037;-68
2023/03/23 12:02:08;;;;;;;3.25;0.95;;;15.50;81.30;;;;;;5028918;28;20119;-67
2023/03/23 12:04:40;;;;;;;2.53;1.17;;;15.30;87.60;;;;;;5017498;28;20045;-69
2023/03/23 12:07:28;;;;;;;11.93;2.08;;;15.10;89.10;;;;;;5020184;28;20045;-67
2023/03/23 12:10:00;;;;;;;4.35;1.63;;;15.10;83.10;;;;;;5050302;28;20454;-69
2023/03/23 12:12:44;;;;;;;6.63;1.50;;;15.50;81.70;;;;;;5017759;28;20041;-68
2023/03/23 12:15:22;;;;;;;3.70;1.10;;;15.70;84.40;;;;;;5028562;28;20063;-69
2023/03/23 12:18:12;;;;;;;4.45;1.10;;;15.70;88.50;;;;;;5031506;28;20040;-69
2023/03/23 12:20:44;;;;;;;;;;;15.60;86.40;;;;;;5037072;28;20049;-68
2023/03/23 12:23:58;;;;;;;4.80;1.10;;;15.30;73.30;;;;;;5036450;28;19931;-71
2023/03/23 12:26:37;;;;;;;4.38;1.30;;;15.40;80.30;;;;;;5037844;28;20111;-68
2023/03/23 12:29:13;;;;;;;2.97;1.10;;;15.40;83.40;;;;;;5034222;28;20040;-67
2023/03/23 12:31:49;;;;;;;7.20;1.10;;;15.20;87.70;;;;;;5034201;28;20045;-71
2023/03/23 12:34:21;;;;;;;5.43;1.20;;;15.30;81.70;;;;;;5018434;28;20040;-69
2023/03/23 12:37:41;;;;;;;9.73;1.40;;;15.40;82.40;;;;;;5036578;28;20043;-69
2023/03/23 12:40:29;;;;;;;5.40;1.17;;;15.40;76.10;;;;;;4955669;28;20043;-72
2023/03/23 12:43:15;;;;;;;3.63;1.55;;;15.00;73.60;;;;;;5017932;28;20491;-70
2023/03/23 12:45:46;;;;;;;4.50;1.10;;;14.90;76.30;;;;;;5032944;28;20041;-73
2023/03/23 12:48:16;;;;;;;6.53;0.95;;;15.10;72.70;;;;;;5024257;28;20053;-69
2023/03/23 12:51:06;;;;;;;8.82;1.27;;;15.10;80.60;;;;;;5033283;28;20048;-72
2023/03/23 12:54:13;;;;;;;4.40;1.33;;;15.10;72.70;;;;;;5035868;28;20052;-69
2023/03/23 12:56:41;;;;;;;4.43;1.20;;;15.20;71.70;;;;;;5035478;28;20520;-69
2023/03/23 12:59:17;;;;;;;3.40;1.63;;;15.50;71.80;;;;;;5026893;28;20044;-66
2023/03/23 13:01:48;;;;;;;4.40;1.27;;;16.00;78.30;;;;;;5036724;28;20045;-67
2023/03/23 13:04:38;;;;;;;5.38;1.60;;;16.30;76.90;;;;;;5011974;28;20413;-69